createdAt,value
2022-12-01T00:00:10.997Z,33.60
2022-12-01T00:03:51.066Z,38.70
2022-12-01T00:07:23.146Z,38.10
2022-12-01T00:10:55.119Z,39.00
2022-12-01T00:14:27.131Z,38.17
2022-12-01T00:17:58.857Z,38.50
2022-12-01T00:21:30.764Z,35.47
2022-12-01T00:25:02.425Z,38.87
2022-12-01T00:28:34.371Z,31.65
2022-12-01T00:32:06.164Z,32.33
2022-12-01T00:35:38.181Z,33.55
2022-12-01T00:39:09.879Z,34.33
2022-12-01T00:42:41.686Z,35.25
2022-12-01T00:46:13.423Z,36.03
2022-12-01T00:49:46.524Z,35.80
2022-12-01T00:53:18.678Z,38.75
2022-12-01T00:56:51.172Z,33.97
2022-12-01T01:00:22.817Z,49.20
2022-12-01T01:03:54.700Z,50.40
2022-12-01T01:07:26.308Z,37.17
2022-12-01T01:10:59.633Z,41.92
2022-12-01T01:14:31.308Z,41.23
2022-12-01T01:18:03.583Z,47.20
2022-12-01T01:21:35.093Z,41.22
2022-12-01T01:25:07.531Z,33.33
2022-12-01T01:28:41.717Z,38.63
2022-12-01T01:32:13.613Z,31.30
2022-12-01T01:35:45.422Z,28.87
2022-12-01T01:39:17.579Z,32.42
2022-12-01T01:42:49.247Z,29.15
2022-12-01T01:46:27.127Z,40.20
2022-12-01T01:50:06.274Z,37.40
2022-12-01T01:53:38.479Z,39.55
2022-12-01T01:57:13.922Z,37.88
2022-12-01T02:00:46.669Z,39.80
2022-12-01T02:04:20.341Z,31.30
2022-12-01T02:07:55.190Z,40.55
2022-12-01T02:12:12.683Z,38.83
2022-12-01T02:16:04.116Z,39.10
2022-12-01T02:20:17.641Z,34.50
2022-12-01T02:24:18.433Z,31.55
2022-12-01T02:28:14.917Z,38.10
2022-12-01T02:32:02.489Z,34.72
2022-12-01T02:35:52.547Z,34.00
2022-12-01T02:39:38.410Z,30.30
2022-12-01T02:43:19.550Z,36.17
2022-12-01T02:46:59.544Z,38.58
2022-12-01T02:50:33.605Z,35.07
2022-12-01T02:54:06.286Z,29.83
2022-12-01T02:57:38.226Z,33.88
2022-12-01T03:01:32.860Z,33.78
2022-12-01T03:05:24.319Z,33.97
2022-12-01T03:08:59.496Z,34.55
2022-12-01T03:12:38.032Z,32.45
2022-12-01T03:16:24.401Z,31.83
2022-12-01T03:20:12.646Z,27.25
2022-12-01T03:23:50.132Z,29.45
2022-12-01T03:27:26.010Z,29.87
2022-12-01T03:31:04.221Z,29.70
2022-12-01T03:34:43.678Z,29.65
2022-12-01T03:38:25.822Z,33.65
2022-12-01T03:42:03.120Z,31.37
2022-12-01T03:45:54.108Z,31.65
2022-12-01T03:49:26.935Z,30.85
2022-12-01T03:53:19.474Z,30.03
2022-12-01T03:56:56.172Z,32.28
2022-12-01T04:00:29.031Z,29.13
2022-12-01T04:04:10.479Z,29.53
2022-12-01T04:07:42.478Z,33.10
2022-12-01T04:11:33.051Z,30.10
2022-12-01T04:15:12.470Z,30.50
2022-12-01T04:18:44.632Z,33.53
2022-12-01T04:22:16.621Z,29.65
2022-12-01T04:25:48.334Z,30.33
2022-12-01T04:29:20.233Z,29.53
2022-12-01T04:32:51.977Z,31.05
2022-12-01T04:36:25.169Z,31.90
2022-12-01T04:39:56.716Z,32.70
2022-12-01T04:43:28.847Z,29.73
2022-12-01T04:47:00.629Z,32.88
2022-12-01T04:50:34.665Z,28.52
2022-12-01T04:54:06.553Z,33.37
2022-12-01T04:57:39.520Z,31.08
2022-12-01T05:01:15.239Z,35.60
2022-12-01T05:04:48.332Z,29.43
2022-12-01T05:08:20.251Z,32.22
2022-12-01T05:11:52.878Z,28.77
2022-12-01T05:15:24.935Z,29.83
2022-12-01T05:19:18.889Z,30.52
2022-12-01T05:23:10.766Z,31.50
2022-12-01T05:26:44.974Z,29.75
2022-12-01T05:30:28.243Z,34.20
2022-12-01T05:34:00.606Z,34.45
2022-12-01T05:37:34.765Z,29.50
2022-12-01T05:41:06.815Z,34.00
2022-12-01T05:44:38.509Z,33.65
2022-12-01T05:48:10.700Z,32.30
2022-12-01T05:51:43.697Z,31.70
2022-12-01T05:55:15.995Z,32.10
2022-12-01T05:58:47.758Z,30.33
2022-12-01T06:02:19.690Z,35.42
2022-12-01T06:05:51.845Z,39.20
2022-12-01T06:09:23.890Z,32.25
2022-12-01T06:12:55.579Z,36.03
2022-12-01T06:16:27.625Z,34.03
2022-12-01T06:19:59.257Z,31.35
2022-12-01T06:23:31.405Z,32.78
2022-12-01T06:27:03.464Z,32.67
2022-12-01T06:30:35.393Z,32.53
2022-12-01T06:34:06.950Z,33.28
2022-12-01T06:37:38.814Z,34.95
2022-12-01T06:41:10.537Z,32.53
2022-12-01T06:44:42.424Z,37.72
2022-12-01T06:48:14.688Z,31.52
2022-12-01T06:51:46.743Z,31.77
2022-12-01T06:55:18.401Z,31.90
2022-12-01T06:58:50.749Z,35.67
2022-12-01T07:02:23.444Z,36.87
2022-12-01T07:06:00.304Z,38.20
2022-12-01T07:09:31.881Z,34.90
2022-12-01T07:13:03.933Z,38.22
2022-12-01T07:16:35.522Z,36.67
2022-12-01T07:20:10.214Z,34.42
2022-12-01T07:23:42.380Z,46.28
2022-12-01T07:27:14.578Z,38.20
2022-12-01T07:30:46.371Z,39.30
2022-12-01T07:34:18.378Z,45.75
2022-12-01T07:37:55.584Z,37.43
2022-12-01T07:41:27.566Z,47.88
2022-12-01T07:44:59.178Z,40.83
2022-12-01T07:48:31.136Z,36.80
2022-12-01T07:52:03.315Z,32.70
2022-12-01T07:55:35.148Z,36.50
2022-12-01T07:59:07.038Z,36.70
2022-12-01T08:02:39.146Z,42.80
2022-12-01T08:06:11.599Z,45.30
2022-12-01T08:09:45.016Z,44.83
2022-12-01T08:13:17.582Z,37.40
2022-12-01T08:16:50.235Z,32.38
2022-12-01T08:20:24.029Z,54.28
2022-12-01T08:23:58.003Z,53.53
2022-12-01T08:27:29.611Z,37.50
2022-12-01T08:31:13.828Z,37.58
2022-12-01T08:34:49.362Z,28.38
2022-12-01T08:38:24.948Z,31.53
2022-12-01T08:41:56.508Z,30.27
2022-12-01T08:45:28.419Z,28.52
2022-12-01T08:49:01.038Z,28.03
2022-12-01T08:58:10.421Z,30.75
2022-12-01T09:01:54.623Z,30.67
2022-12-01T09:05:26.684Z,26.87
2022-12-01T09:09:02.298Z,33.03
2022-12-01T09:12:33.875Z,28.48
2022-12-01T09:16:08.891Z,33.50
2022-12-01T09:19:40.773Z,31.77
2022-12-01T09:23:13.673Z,28.38
2022-12-01T09:26:45.291Z,39.67
2022-12-01T09:30:17.668Z,33.75
2022-12-01T09:33:57.714Z,38.78
2022-12-01T09:37:29.603Z,37.20
2022-12-01T09:41:06.996Z,36.87
2022-12-01T09:44:44.624Z,34.67
2022-12-01T09:48:31.678Z,33.95
2022-12-01T09:52:03.848Z,33.20
2022-12-01T09:55:37.180Z,34.97
2022-12-01T09:59:18.024Z,34.35
2022-12-01T10:03:03.300Z,34.03
2022-12-01T10:06:45.371Z,32.65
2022-12-01T10:10:20.125Z,32.42
2022-12-01T10:13:52.056Z,30.70
2022-12-01T10:17:23.574Z,31.90
2022-12-01T10:21:11.413Z,32.55
2022-12-01T10:25:17.290Z,30.58
2022-12-01T10:29:07.133Z,32.90
2022-12-01T10:32:50.047Z,35.83
2022-12-01T10:36:23.033Z,31.98
2022-12-01T10:39:56.745Z,32.03
2022-12-01T10:43:34.119Z,33.25
2022-12-01T10:47:18.433Z,32.05
2022-12-01T10:50:56.086Z,36.67
2022-12-01T10:54:36.204Z,33.00
2022-12-01T10:58:16.040Z,33.17
2022-12-01T11:01:51.435Z,30.05
2022-12-01T11:05:32.876Z,30.27
2022-12-01T11:09:15.795Z,32.20
2022-12-01T11:12:57.743Z,42.58
2022-12-01T11:16:44.724Z,39.37
2022-12-01T11:20:39.877Z,34.50
2022-12-01T11:24:28.392Z,36.35
2022-12-01T11:28:01.927Z,35.67
2022-12-01T11:31:42.598Z,42.00
2022-12-01T11:35:20.716Z,36.47
2022-12-01T11:38:57.682Z,34.10
2022-12-01T11:42:31.233Z,36.03
2022-12-01T11:46:06.540Z,37.80
2022-12-01T11:49:46.905Z,36.67
2022-12-01T11:53:28.457Z,35.50
2022-12-01T11:57:31.651Z,32.08
2022-12-01T12:00:57.914Z,37.50
2022-12-01T12:04:36.962Z,40.58
2022-12-01T12:08:28.787Z,40.37
2022-12-01T12:12:14.390Z,36.90
2022-12-01T12:16:01.023Z,37.90
2022-12-01T12:20:08.486Z,39.03
2022-12-01T12:24:07.793Z,30.52
2022-12-01T12:27:48.234Z,37.83
2022-12-01T12:32:01.342Z,33.37
2022-12-01T12:35:41.330Z,32.92
2022-12-01T12:39:32.033Z,33.67
2022-12-01T12:43:25.539Z,29.77
2022-12-01T12:47:09.919Z,30.97
2022-12-01T12:51:08.636Z,27.85
2022-12-01T12:54:54.306Z,35.40
2022-12-01T12:58:35.848Z,32.17
2022-12-01T13:02:19.735Z,36.28
2022-12-01T13:06:05.489Z,40.60
2022-12-01T13:09:43.752Z,38.90
2022-12-01T13:13:33.736Z,38.28
2022-12-01T13:17:33.993Z,33.60
2022-12-01T13:21:08.199Z,33.53
2022-12-01T13:24:40.184Z,30.17
2022-12-01T13:28:18.933Z,36.35
2022-12-01T13:31:52.995Z,35.28
2022-12-01T13:35:32.032Z,37.53
2022-12-01T13:39:18.573Z,34.35
2022-12-01T13:43:08.441Z,39.22
2022-12-01T13:46:42.193Z,34.63
2022-12-01T13:50:36.233Z,35.28
2022-12-01T13:54:28.575Z,48.80
2022-12-01T13:58:00.627Z,43.60
2022-12-01T14:01:43.631Z,44.83
2022-12-01T14:05:24.399Z,31.10
2022-12-01T14:09:03.007Z,33.95
2022-12-01T14:12:37.826Z,36.30
2022-12-01T14:16:09.686Z,38.72
2022-12-01T14:19:52.963Z,35.20
2022-12-01T14:23:34.009Z,35.20
2022-12-01T14:27:08.267Z,33.58
2022-12-01T14:30:47.099Z,32.08
2022-12-01T14:34:24.306Z,32.60
2022-12-01T14:37:56.580Z,31.87
2022-12-01T14:41:32.216Z,35.58
2022-12-01T14:45:07.385Z,30.25
2022-12-01T14:48:46.149Z,36.13
2022-12-01T14:52:29.808Z,31.65
2022-12-01T14:56:12.339Z,32.45
2022-12-01T14:59:44.695Z,34.80
2022-12-01T15:03:23.208Z,34.60
2022-12-01T15:07:00.266Z,36.65
2022-12-01T15:10:36.976Z,30.48
2022-12-01T15:14:30.140Z,36.53
2022-12-01T15:18:22.822Z,35.05
2022-12-01T15:21:54.518Z,35.33
2022-12-01T15:25:34.438Z,36.47
2022-12-01T15:29:15.732Z,34.58
2022-12-01T15:32:47.937Z,36.47
2022-12-01T15:36:19.785Z,33.83
2022-12-01T15:40:35.720Z,37.28
2022-12-01T15:44:03.505Z,37.72
2022-12-01T15:47:48.857Z,34.88
2022-12-01T15:51:27.063Z,29.80
2022-12-01T15:55:03.649Z,31.63
2022-12-01T15:58:45.461Z,33.92
2022-12-01T16:02:20.526Z,45.57
2022-12-01T16:05:52.655Z,40.63
2022-12-01T16:09:40.278Z,35.25
2022-12-01T16:13:45.981Z,35.03
2022-12-01T16:17:18.304Z,36.30
2022-12-01T16:20:50.000Z,41.72
2022-12-01T16:24:35.877Z,21.40
2022-12-01T16:28:37.659Z,21.93
2022-12-01T16:32:22.053Z,23.52
2022-12-01T16:35:55.337Z,20.88
2022-12-01T16:39:27.736Z,29.37
2022-12-01T16:42:59.380Z,25.80
2022-12-01T16:46:32.453Z,25.40
2022-12-01T16:50:04.474Z,21.80
2022-12-01T16:53:36.511Z,21.95
2022-12-01T16:57:08.525Z,20.88
2022-12-01T17:00:41.310Z,19.40
2022-12-01T17:04:13.037Z,18.30
2022-12-01T17:07:45.127Z,14.73
2022-12-01T17:11:16.770Z,16.30
2022-12-01T17:14:49.292Z,17.83
2022-12-01T17:18:22.567Z,21.38
2022-12-01T17:21:56.021Z,23.83
2022-12-01T17:25:27.629Z,36.17
2022-12-01T17:28:59.520Z,27.38
2022-12-01T17:32:32.200Z,26.50
2022-12-01T17:36:06.858Z,25.45
2022-12-01T17:39:38.490Z,26.10
2022-12-01T17:43:10.449Z,25.55
2022-12-01T17:46:42.693Z,26.48
2022-12-01T17:50:15.250Z,20.73
2022-12-01T17:53:47.014Z,24.10
2022-12-01T17:57:19.125Z,22.58
2022-12-01T18:00:53.628Z,18.90
2022-12-01T18:04:25.780Z,21.25
2022-12-01T18:07:57.786Z,24.20
2022-12-01T18:11:29.893Z,35.70
2022-12-01T18:15:01.653Z,25.10
2022-12-01T18:18:33.792Z,21.08
2022-12-01T18:22:05.336Z,20.20
2022-12-01T18:25:37.615Z,20.80
2022-12-01T18:29:16.111Z,15.43
2022-12-01T18:32:49.181Z,15.82
2022-12-01T18:36:22.769Z,13.40
2022-12-01T18:39:55.692Z,23.73
2022-12-01T18:43:31.997Z,26.08
2022-12-01T18:47:03.960Z,19.92
2022-12-01T18:50:35.782Z,17.03
2022-12-01T18:54:10.414Z,12.38
2022-12-01T18:57:42.031Z,16.63
2022-12-01T19:01:21.232Z,15.33
2022-12-01T19:04:53.136Z,18.42
2022-12-01T19:08:25.685Z,16.10
2022-12-01T19:12:00.032Z,13.93
2022-12-01T19:15:32.007Z,16.52
2022-12-01T19:19:03.809Z,14.68
2022-12-01T19:22:35.696Z,14.75
2022-12-01T19:26:10.566Z,18.33
2022-12-01T19:29:42.556Z,17.67
2022-12-01T19:33:14.881Z,16.58
2022-12-01T19:36:46.938Z,11.37
2022-12-01T19:40:18.900Z,14.27
2022-12-01T19:43:52.074Z,27.38
2022-12-01T19:47:23.623Z,21.67
2022-12-01T19:50:55.527Z,24.15
2022-12-01T19:54:28.918Z,15.07
2022-12-01T19:58:00.780Z,9.90
2022-12-01T20:01:32.543Z,14.07
2022-12-01T20:05:05.588Z,10.00
2022-12-01T20:08:37.424Z,12.25
2022-12-01T20:12:10.099Z,13.47
2022-12-01T20:15:41.824Z,10.85
2022-12-01T20:19:13.699Z,16.35
2022-12-01T20:22:45.266Z,10.53
2022-12-01T20:26:18.921Z,11.82
2022-12-01T20:29:50.671Z,11.48
2022-12-01T20:33:23.330Z,16.92
2022-12-01T20:36:56.913Z,14.83
2022-12-01T20:40:28.737Z,17.48
2022-12-01T20:44:06.753Z,12.60
2022-12-01T20:47:39.408Z,13.37
2022-12-01T20:51:12.513Z,13.65
2022-12-01T20:54:44.885Z,17.17
2022-12-01T20:58:16.617Z,18.87
2022-12-01T21:01:48.929Z,18.05
2022-12-01T21:05:20.626Z,12.75
2022-12-01T21:08:52.867Z,14.38
2022-12-01T21:12:44.018Z,12.47
2022-12-01T21:16:15.948Z,10.45
2022-12-01T21:19:56.655Z,10.75
2022-12-01T21:23:29.708Z,19.37
2022-12-01T21:27:08.438Z,15.85
2022-12-01T21:30:40.531Z,12.25
2022-12-01T21:34:20.969Z,10.60
2022-12-01T21:38:04.097Z,16.42
2022-12-01T21:41:35.760Z,11.65
2022-12-01T21:45:26.119Z,13.73
2022-12-01T21:48:57.877Z,12.80
2022-12-01T21:52:39.290Z,12.88
2022-12-01T21:56:20.470Z,14.85
2022-12-01T21:59:57.878Z,14.33
2022-12-01T22:03:37.070Z,14.07
2022-12-01T22:07:09.305Z,15.18
2022-12-01T22:10:54.054Z,14.17
2022-12-01T22:14:34.378Z,14.13
2022-12-01T22:18:21.960Z,17.55
2022-12-01T22:22:09.141Z,15.38
2022-12-01T22:25:42.290Z,18.63
2022-12-01T22:29:22.726Z,17.67
2022-12-01T22:33:00.880Z,16.92
2022-12-01T22:36:33.413Z,15.93
2022-12-01T22:40:31.866Z,13.25
2022-12-01T22:44:03.956Z,16.30
2022-12-01T22:47:35.609Z,19.13
2022-12-01T22:51:20.843Z,17.63
2022-12-01T22:54:52.728Z,16.40
2022-12-01T22:58:30.613Z,18.25
2022-12-01T23:02:12.218Z,18.13
2022-12-01T23:05:45.729Z,20.55
2022-12-01T23:09:17.294Z,20.02
2022-12-01T23:12:52.247Z,21.13
2022-12-01T23:16:25.076Z,24.17
2022-12-01T23:20:20.017Z,23.88
2022-12-01T23:23:51.648Z,22.00
2022-12-01T23:27:23.623Z,30.60
2022-12-01T23:30:57.759Z,26.38
2022-12-01T23:34:30.130Z,24.55
2022-12-01T23:38:01.883Z,24.10
2022-12-01T23:41:40.934Z,26.92
2022-12-01T23:45:25.082Z,34.05
2022-12-01T23:49:03.727Z,39.47
2022-12-01T23:52:36.605Z,21.02
2022-12-01T23:56:14.317Z,21.30
2022-12-01T23:59:46.336Z,24.20
